createdAt,value
2022-10-31T00:01:39.244Z,14.75
2022-10-31T00:04:06.914Z,14.71
2022-10-31T00:06:34.111Z,14.68
2022-10-31T00:09:04.832Z,14.63
2022-10-31T00:11:32.054Z,14.60
2022-10-31T00:14:00.484Z,14.57
2022-10-31T00:16:28.891Z,14.55
2022-10-31T00:19:04.386Z,14.54
2022-10-31T00:21:32.084Z,14.53
2022-10-31T00:24:00.726Z,14.51
2022-10-31T00:26:32.318Z,14.51
2022-10-31T00:29:00.847Z,14.48
2022-10-31T00:31:28.100Z,14.47
2022-10-31T00:33:55.154Z,14.43
2022-10-31T00:36:22.339Z,14.42
2022-10-31T00:38:49.616Z,14.40
2022-10-31T00:41:18.727Z,14.39
2022-10-31T00:43:45.768Z,14.39
2022-10-31T00:46:14.020Z,14.37
2022-10-31T00:48:41.332Z,14.36
2022-10-31T00:51:08.693Z,14.33
2022-10-31T00:53:36.055Z,14.30
2022-10-31T00:56:03.594Z,14.28
2022-10-31T00:58:30.621Z,14.29
2022-10-31T01:00:57.791Z,14.28
2022-10-31T01:03:31.478Z,14.29
2022-10-31T01:06:07.749Z,14.28
2022-10-31T01:08:36.977Z,14.26
2022-10-31T01:11:21.442Z,14.26
2022-10-31T01:13:51.038Z,14.22
2022-10-31T01:16:21.014Z,14.20
2022-10-31T01:18:48.232Z,14.18
2022-10-31T01:21:24.700Z,14.16
2022-10-31T01:23:54.336Z,14.12
2022-10-31T01:26:28.467Z,14.10
2022-10-31T01:28:59.283Z,14.07
2022-10-31T01:31:30.710Z,14.05
2022-10-31T01:33:58.935Z,14.00
2022-10-31T01:36:31.957Z,13.96
2022-10-31T01:39:12.054Z,13.93
2022-10-31T01:41:43.684Z,13.89
2022-10-31T01:44:16.344Z,13.86
2022-10-31T01:46:49.013Z,13.82
2022-10-31T01:49:39.412Z,13.79
2022-10-31T01:52:33.849Z,13.74
2022-10-31T01:55:10.879Z,13.71
2022-10-31T01:57:41.458Z,13.65
2022-10-31T02:00:12.115Z,13.63
2022-10-31T02:02:39.324Z,13.63
2022-10-31T02:05:15.595Z,13.62
2022-10-31T02:07:54.372Z,13.59
2022-10-31T02:10:25.601Z,13.55
2022-10-31T02:12:56.472Z,13.51
2022-10-31T02:15:23.894Z,13.48
2022-10-31T02:17:50.972Z,13.42
2022-10-31T02:20:22.621Z,13.35
2022-10-31T02:23:07.538Z,13.33
2022-10-31T02:25:47.655Z,13.29
2022-10-31T02:28:23.255Z,13.24
2022-10-31T02:31:15.651Z,13.20
2022-10-31T02:33:52.004Z,13.16
2022-10-31T02:36:57.339Z,13.14
2022-10-31T02:40:03.397Z,13.10
2022-10-31T02:42:42.715Z,13.06
2022-10-31T02:45:26.470Z,13.05
2022-10-31T02:47:58.426Z,13.04
2022-10-31T02:50:36.131Z,13.01
2022-10-31T02:53:03.879Z,13.02
2022-10-31T02:55:30.925Z,13.03
2022-10-31T02:58:15.917Z,13.05
2022-10-31T03:01:04.067Z,13.06
2022-10-31T03:03:58.323Z,13.09
2022-10-31T03:06:42.185Z,13.11
2022-10-31T03:09:51.913Z,13.14
2022-10-31T03:13:14.480Z,13.15
2022-10-31T03:15:46.449Z,13.13
2022-10-31T03:18:25.166Z,13.13
2022-10-31T03:21:02.638Z,13.11
2022-10-31T03:23:31.534Z,13.04
2022-10-31T03:26:01.818Z,13.02
2022-10-31T03:28:34.907Z,13.00
2022-10-31T03:31:06.493Z,12.94
2022-10-31T03:33:38.688Z,12.88
2022-10-31T03:36:08.782Z,12.84
2022-10-31T03:38:37.051Z,12.79
2022-10-31T03:41:08.240Z,12.77
2022-10-31T03:43:44.496Z,12.71
2022-10-31T03:46:11.910Z,12.66
2022-10-31T03:48:39.666Z,12.64
2022-10-31T03:51:40.796Z,12.60
2022-10-31T03:54:35.007Z,12.60
2022-10-31T03:57:08.466Z,12.58
2022-10-31T03:59:45.325Z,12.60
2022-10-31T04:02:18.558Z,12.59
2022-10-31T04:04:47.779Z,12.61
2022-10-31T04:07:16.133Z,12.62
2022-10-31T04:09:47.731Z,12.62
2022-10-31T04:12:17.786Z,12.62
2022-10-31T04:14:48.988Z,12.62
2022-10-31T04:17:20.965Z,12.61
2022-10-31T04:19:48.015Z,12.65
2022-10-31T04:22:15.242Z,12.67
2022-10-31T04:24:42.401Z,12.71
2022-10-31T04:27:09.480Z,12.73
2022-10-31T04:29:36.604Z,12.71
2022-10-31T04:32:03.657Z,12.70
2022-10-31T04:34:30.627Z,12.65
2022-10-31T04:36:57.588Z,12.67
2022-10-31T04:39:26.725Z,12.66
2022-10-31T04:41:53.953Z,12.66
2022-10-31T04:44:20.988Z,12.65
2022-10-31T04:46:48.219Z,12.64
2022-10-31T04:49:15.269Z,12.64
2022-10-31T04:51:42.252Z,12.66
2022-10-31T04:54:09.334Z,12.70
2022-10-31T04:56:36.343Z,12.71
2022-10-31T04:59:03.518Z,12.75
2022-10-31T05:01:30.726Z,12.71
2022-10-31T05:03:57.807Z,12.72
2022-10-31T05:06:24.905Z,12.72
2022-10-31T05:08:52.259Z,12.71
2022-10-31T05:11:19.210Z,12.68
2022-10-31T05:13:46.159Z,12.64
2022-10-31T05:16:13.222Z,12.59
2022-10-31T05:18:40.173Z,12.55
2022-10-31T05:21:07.228Z,12.51
2022-10-31T05:23:34.172Z,12.46
2022-10-31T05:26:01.209Z,12.37
2022-10-31T05:28:28.174Z,12.39
2022-10-31T05:30:55.306Z,12.37
2022-10-31T05:33:22.275Z,12.33
2022-10-31T05:35:49.431Z,12.31
2022-10-31T05:38:16.413Z,12.29
2022-10-31T05:40:43.477Z,12.27
2022-10-31T05:43:10.574Z,12.26
2022-10-31T05:45:37.521Z,12.22
2022-10-31T05:48:05.491Z,12.22
2022-10-31T05:50:33.006Z,12.17
2022-10-31T05:53:06.021Z,12.14
2022-10-31T05:55:33.588Z,12.15
2022-10-31T05:58:00.976Z,12.13
2022-10-31T06:00:29.629Z,12.11
2022-10-31T06:05:36.543Z,12.05
2022-10-31T06:08:04.200Z,12.05
2022-10-31T06:10:31.547Z,12.04
2022-10-31T06:12:58.689Z,12.01
2022-10-31T06:15:25.868Z,12.01
2022-10-31T06:18:06.678Z,12.01
2022-10-31T06:20:34.554Z,11.99
2022-10-31T06:23:02.598Z,11.99
2022-10-31T06:25:30.102Z,11.97
2022-10-31T06:27:58.006Z,11.98
2022-10-31T06:30:25.829Z,11.99
2022-10-31T06:32:52.999Z,12.02
2022-10-31T06:35:20.318Z,12.04
2022-10-31T06:37:57.027Z,12.10
2022-10-31T06:40:24.633Z,12.15
2022-10-31T06:43:02.238Z,12.16
2022-10-31T06:45:29.429Z,12.14
2022-10-31T06:50:46.096Z,12.19
2022-10-31T06:53:15.055Z,12.21
2022-10-31T06:55:43.292Z,12.24
2022-10-31T06:58:11.602Z,12.28
2022-10-31T07:00:38.723Z,12.32
2022-10-31T07:03:12.003Z,12.36
2022-10-31T07:05:39.754Z,12.40
2022-10-31T07:08:13.661Z,12.45
2022-10-31T07:10:43.524Z,12.49
2022-10-31T07:13:15.759Z,12.54
2022-10-31T07:15:44.661Z,12.57
2022-10-31T07:18:14.142Z,12.61
2022-10-31T07:20:41.590Z,12.64
2022-10-31T07:23:11.725Z,12.70
2022-10-31T07:25:42.839Z,12.77
2022-10-31T07:28:10.390Z,12.80
2022-10-31T07:30:39.292Z,12.83
2022-10-31T07:33:07.152Z,12.86
2022-10-31T07:35:35.792Z,12.91
2022-10-31T07:38:14.186Z,12.96
2022-10-31T07:40:43.114Z,12.98
2022-10-31T07:43:14.511Z,13.02
2022-10-31T07:45:42.059Z,13.06
2022-10-31T07:48:09.108Z,13.11
2022-10-31T07:50:36.398Z,13.18
2022-10-31T07:53:07.059Z,13.25
2022-10-31T07:55:34.748Z,13.27
2022-10-31T07:58:03.981Z,13.34
2022-10-31T08:00:33.650Z,13.40
2022-10-31T08:03:06.047Z,13.47
2022-10-31T08:05:34.395Z,13.53
2022-10-31T08:08:01.883Z,13.62
2022-10-31T08:10:29.399Z,13.71
2022-10-31T08:13:02.014Z,13.83
2022-10-31T08:15:30.949Z,13.97
2022-10-31T08:17:58.571Z,14.15
2022-10-31T08:20:25.933Z,14.40
2022-10-31T08:23:05.296Z,14.73
2022-10-31T08:25:38.417Z,15.05
2022-10-31T08:28:08.115Z,15.28
2022-10-31T08:30:37.547Z,15.38
2022-10-31T08:33:13.528Z,15.42
2022-10-31T08:35:41.608Z,15.35
2022-10-31T08:38:14.001Z,15.27
2022-10-31T08:40:41.083Z,15.20
2022-10-31T08:43:15.358Z,15.14
2022-10-31T08:45:43.675Z,15.10
2022-10-31T08:48:14.552Z,15.07
2022-10-31T08:50:42.381Z,15.05
2022-10-31T08:53:19.831Z,15.04
2022-10-31T08:55:47.835Z,15.02
2022-10-31T08:58:20.775Z,15.02
2022-10-31T09:00:54.637Z,15.05
2022-10-31T09:03:31.532Z,15.15
2022-10-31T09:06:03.700Z,15.35
2022-10-31T09:08:32.163Z,15.72
2022-10-31T09:10:59.772Z,16.01
2022-10-31T09:13:28.257Z,16.18
2022-10-31T09:15:57.687Z,16.32
2022-10-31T09:18:25.427Z,16.42
2022-10-31T09:20:52.530Z,16.47
2022-10-31T09:23:24.003Z,16.49
2022-10-31T09:25:53.681Z,16.61
2022-10-31T09:28:24.211Z,16.72
2022-10-31T09:30:53.842Z,16.74
2022-10-31T09:33:21.813Z,16.68
2022-10-31T09:35:49.177Z,16.59
2022-10-31T09:38:21.915Z,16.52
2022-10-31T09:41:29.142Z,16.52
2022-10-31T09:44:27.624Z,16.50
2022-10-31T09:47:38.477Z,16.57
2022-10-31T09:50:28.950Z,16.64
2022-10-31T09:53:08.081Z,16.73
2022-10-31T09:55:47.661Z,16.81
2022-10-31T09:58:24.323Z,16.90
2022-10-31T10:00:51.871Z,17.00
2022-10-31T10:03:32.542Z,17.26
2022-10-31T10:06:29.329Z,17.66
2022-10-31T10:08:57.649Z,17.98
2022-10-31T10:11:38.102Z,18.12
2022-10-31T10:14:36.062Z,18.12
2022-10-31T10:17:24.281Z,18.19
2022-10-31T10:20:03.601Z,18.33
2022-10-31T10:22:52.724Z,18.40
2022-10-31T10:25:41.533Z,18.44
2022-10-31T10:28:17.719Z,18.51
2022-10-31T10:31:15.479Z,18.64
2022-10-31T10:34:26.853Z,18.74
2022-10-31T10:36:58.558Z,18.72
2022-10-31T10:39:36.411Z,18.74
2022-10-31T10:42:32.349Z,18.83
2022-10-31T10:45:19.329Z,18.90
2022-10-31T10:48:01.418Z,18.90
2022-10-31T10:50:42.433Z,18.87
2022-10-31T10:54:06.558Z,18.85
2022-10-31T10:57:00.858Z,18.82
2022-10-31T10:59:28.361Z,18.92
2022-10-31T11:01:55.308Z,19.00
2022-10-31T11:04:32.451Z,19.06
2022-10-31T11:07:17.473Z,19.07
2022-10-31T11:09:44.793Z,19.10
2022-10-31T11:12:28.085Z,19.16
2022-10-31T11:15:06.775Z,19.19
2022-10-31T11:17:39.885Z,19.17
2022-10-31T11:20:16.293Z,19.13
2022-10-31T11:22:49.850Z,19.13
2022-10-31T11:25:25.682Z,19.24
2022-10-31T11:28:09.670Z,19.44
2022-10-31T11:30:52.861Z,19.62
2022-10-31T11:33:24.353Z,19.73
2022-10-31T11:35:57.007Z,19.78
2022-10-31T11:38:42.045Z,19.88
2022-10-31T11:41:18.144Z,19.99
2022-10-31T11:44:01.475Z,20.04
2022-10-31T11:46:43.747Z,19.99
2022-10-31T11:49:28.724Z,19.94
2022-10-31T11:51:59.578Z,19.92
2022-10-31T11:54:36.625Z,19.86
2022-10-31T11:57:03.985Z,19.72
2022-10-31T11:59:33.198Z,19.54
2022-10-31T12:02:02.744Z,19.44
2022-10-31T12:04:47.651Z,19.34
2022-10-31T12:07:14.642Z,19.24
2022-10-31T12:09:42.368Z,19.24
2022-10-31T12:12:12.291Z,19.33
2022-10-31T12:15:01.682Z,19.46
2022-10-31T12:17:41.046Z,19.66
2022-10-31T12:20:33.091Z,19.87
2022-10-31T12:24:13.391Z,20.12
2022-10-31T12:27:24.261Z,20.30
2022-10-31T12:30:20.682Z,20.44
2022-10-31T12:33:06.477Z,20.48
2022-10-31T12:35:57.285Z,20.48
2022-10-31T12:39:16.346Z,20.40
2022-10-31T12:42:37.292Z,20.35
2022-10-31T12:45:32.096Z,20.25
2022-10-31T12:48:23.606Z,20.12
2022-10-31T12:51:30.967Z,19.92
2022-10-31T12:54:28.070Z,19.77
2022-10-31T12:57:13.230Z,19.72
2022-10-31T13:00:00.396Z,19.74
2022-10-31T13:02:43.912Z,19.78
2022-10-31T13:05:53.445Z,19.86
2022-10-31T13:08:34.895Z,19.90
2022-10-31T13:11:13.706Z,19.95
2022-10-31T13:14:11.227Z,20.00
2022-10-31T13:16:48.669Z,19.92
2022-10-31T13:19:55.227Z,19.90
2022-10-31T13:22:30.741Z,19.90
2022-10-31T13:25:27.217Z,19.85
2022-10-31T13:28:04.731Z,19.84
2022-10-31T13:30:41.082Z,19.77
2022-10-31T13:33:42.122Z,19.77
2022-10-31T13:36:43.124Z,19.74
2022-10-31T13:39:51.287Z,19.75
2022-10-31T13:43:02.396Z,19.71
2022-10-31T13:45:29.934Z,19.66
2022-10-31T13:48:25.768Z,19.63
2022-10-31T13:51:09.380Z,19.50
2022-10-31T13:53:45.454Z,19.35
2022-10-31T13:56:21.366Z,19.24
2022-10-31T13:59:11.527Z,19.17
2022-10-31T14:01:47.179Z,19.19
2022-10-31T14:04:24.869Z,19.31
2022-10-31T14:07:08.306Z,19.46
2022-10-31T14:10:22.378Z,19.52
2022-10-31T14:12:50.336Z,19.56
2022-10-31T14:15:27.696Z,19.70
2022-10-31T14:18:01.248Z,19.78
2022-10-31T14:20:44.657Z,19.81
2022-10-31T14:23:31.829Z,19.81
2022-10-31T14:26:37.976Z,19.70
2022-10-31T14:29:17.981Z,19.55
2022-10-31T14:31:52.519Z,19.41
2022-10-31T14:34:32.220Z,19.34
2022-10-31T14:37:08.082Z,19.33
2022-10-31T14:40:07.447Z,19.34
2022-10-31T14:42:59.426Z,19.39
2022-10-31T14:45:34.699Z,19.47
2022-10-31T14:48:32.734Z,19.55
2022-10-31T14:51:02.895Z,19.65
2022-10-31T14:53:35.200Z,19.75
2022-10-31T14:56:06.724Z,19.75
2022-10-31T14:58:46.909Z,19.71
2022-10-31T15:01:33.631Z,19.64
2022-10-31T15:04:25.307Z,19.47
2022-10-31T15:07:24.652Z,19.28
2022-10-31T15:10:33.250Z,19.11
2022-10-31T15:13:22.736Z,19.00
2022-10-31T15:15:54.476Z,18.86
2022-10-31T15:18:27.059Z,18.77
2022-10-31T15:20:57.021Z,18.68
2022-10-31T15:23:30.502Z,18.61
2022-10-31T15:26:06.543Z,18.52
2022-10-31T15:28:33.591Z,18.45
2022-10-31T15:31:03.272Z,18.37
2022-10-31T15:33:38.251Z,18.32
2022-10-31T15:36:07.372Z,18.23
2022-10-31T15:38:41.624Z,18.17
2022-10-31T15:41:44.035Z,18.08
2022-10-31T15:44:33.345Z,17.98
2022-10-31T15:47:06.234Z,17.89
2022-10-31T15:49:42.198Z,17.81
2022-10-31T15:52:18.578Z,17.71
2022-10-31T15:54:59.802Z,17.64
2022-10-31T15:57:29.844Z,17.55
2022-10-31T15:59:57.485Z,17.46
2022-10-31T16:02:27.392Z,17.38
2022-10-31T16:05:01.530Z,17.14
2022-10-31T16:07:30.574Z,17.23
2022-10-31T16:10:01.107Z,17.19
2022-10-31T16:12:38.430Z,17.12
2022-10-31T16:15:10.452Z,17.08
2022-10-31T16:17:44.371Z,17.06
2022-10-31T16:20:28.237Z,17.07
2022-10-31T16:22:58.057Z,17.04
2022-10-31T16:25:39.142Z,17.02
2022-10-31T16:28:38.845Z,16.98
2022-10-31T16:31:16.643Z,16.98
2022-10-31T16:33:44.710Z,16.95
2022-10-31T16:36:35.652Z,16.92
2022-10-31T16:39:03.935Z,16.88
2022-10-31T16:41:30.990Z,16.89
2022-10-31T16:43:58.196Z,16.87
2022-10-31T16:46:28.609Z,16.88
2022-10-31T16:48:55.850Z,16.88
2022-10-31T16:51:22.869Z,16.86
2022-10-31T16:53:53.351Z,16.87
2022-10-31T16:56:30.268Z,16.86
2022-10-31T16:58:57.456Z,16.86
2022-10-31T17:01:24.771Z,16.84
2022-10-31T17:03:51.838Z,16.82
2022-10-31T17:06:21.325Z,16.78
2022-10-31T17:08:48.335Z,16.72
2022-10-31T17:11:21.888Z,16.64
2022-10-31T17:13:49.172Z,16.59
2022-10-31T17:16:16.351Z,16.55
2022-10-31T17:18:47.501Z,16.49
2022-10-31T17:21:23.259Z,16.45
2022-10-31T17:23:51.518Z,16.39
2022-10-31T17:26:19.928Z,16.33
2022-10-31T17:28:47.217Z,16.28
2022-10-31T17:31:28.423Z,16.24
2022-10-31T17:34:02.344Z,16.19
2022-10-31T17:36:32.064Z,16.15
2022-10-31T17:38:59.987Z,16.10
2022-10-31T17:41:27.225Z,16.05
2022-10-31T17:43:57.330Z,15.99
2022-10-31T17:46:24.671Z,15.96
2022-10-31T17:48:51.855Z,15.94
2022-10-31T17:51:19.019Z,15.91
2022-10-31T17:53:46.070Z,15.87
2022-10-31T17:56:13.487Z,15.82
2022-10-31T17:58:40.733Z,15.77
2022-10-31T18:01:14.874Z,15.72
2022-10-31T18:03:42.541Z,15.68
2022-10-31T18:06:11.468Z,15.62
2022-10-31T18:08:41.540Z,15.62
2022-10-31T18:11:19.696Z,15.60
2022-10-31T18:13:46.731Z,15.57
2022-10-31T18:16:19.226Z,15.55
2022-10-31T18:18:59.233Z,15.55
2022-10-31T18:21:26.733Z,15.51
2022-10-31T18:23:59.049Z,15.51
2022-10-31T18:26:27.893Z,15.47
2022-10-31T18:28:55.455Z,15.46
2022-10-31T18:31:23.030Z,15.46
2022-10-31T18:33:56.770Z,15.44
2022-10-31T18:36:24.636Z,15.42
2022-10-31T18:38:51.716Z,15.39
2022-10-31T18:41:18.982Z,15.38
2022-10-31T18:43:46.128Z,15.39
2022-10-31T18:46:16.618Z,15.36
2022-10-31T18:48:44.929Z,15.37
2022-10-31T18:51:14.553Z,15.34
2022-10-31T18:53:41.602Z,15.33
2022-10-31T18:56:11.217Z,15.33
2022-10-31T18:58:38.233Z,15.33
2022-10-31T19:01:11.027Z,15.30
2022-10-31T19:03:39.693Z,15.28
2022-10-31T19:06:08.125Z,15.26
2022-10-31T19:08:36.323Z,15.24
2022-10-31T19:11:13.027Z,15.21
2022-10-31T19:13:42.937Z,15.21
2022-10-31T19:16:14.154Z,15.19
2022-10-31T19:18:42.991Z,15.19
2022-10-31T19:21:14.082Z,15.16
2022-10-31T19:23:41.934Z,15.14
2022-10-31T19:26:10.074Z,15.11
2022-10-31T19:28:39.478Z,15.08
2022-10-31T19:31:08.064Z,15.07
2022-10-31T19:33:36.524Z,15.06
2022-10-31T19:36:10.976Z,15.04
2022-10-31T19:38:42.039Z,15.02
2022-10-31T19:41:31.685Z,15.03
2022-10-31T19:44:01.904Z,15.01
2022-10-31T19:49:16.501Z,14.97
2022-10-31T19:51:43.539Z,14.97
2022-10-31T19:54:12.326Z,14.96
2022-10-31T19:56:40.008Z,14.93
2022-10-31T19:59:08.209Z,14.94
2022-10-31T20:01:36.024Z,14.91
2022-10-31T20:04:03.450Z,14.90
2022-10-31T20:06:36.178Z,14.89
2022-10-31T20:09:08.087Z,14.88
2022-10-31T20:11:37.613Z,14.89
2022-10-31T20:14:05.684Z,14.89
2022-10-31T20:16:33.031Z,14.88
2022-10-31T20:19:00.253Z,14.90
2022-10-31T20:21:30.754Z,14.93
2022-10-31T20:24:06.608Z,14.91
2022-10-31T20:26:35.034Z,14.94
2022-10-31T20:29:03.450Z,14.92
2022-10-31T20:31:34.481Z,14.93
2022-10-31T20:34:01.910Z,14.92
2022-10-31T20:36:29.683Z,14.93
2022-10-31T20:38:58.631Z,14.91
2022-10-31T20:41:26.442Z,14.92
2022-10-31T20:43:53.644Z,14.93
2022-10-31T20:46:26.914Z,14.92
2022-10-31T20:48:55.173Z,14.90
2022-10-31T20:51:27.538Z,14.90
2022-10-31T20:53:57.347Z,14.88
2022-10-31T20:56:27.418Z,14.87
2022-10-31T20:58:58.093Z,14.86
2022-10-31T21:01:28.899Z,14.84
2022-10-31T21:03:56.863Z,14.84
2022-10-31T21:06:24.203Z,14.81
2022-10-31T21:09:01.025Z,14.84
2022-10-31T21:11:29.350Z,14.81
2022-10-31T21:13:58.289Z,14.81
2022-10-31T21:16:32.343Z,14.81
2022-10-31T21:19:01.023Z,14.79
2022-10-31T21:21:35.397Z,14.83
2022-10-31T21:24:12.598Z,14.85
2022-10-31T21:26:44.476Z,14.84
2022-10-31T21:29:13.193Z,14.87
2022-10-31T21:31:41.522Z,14.89
2022-10-31T21:34:09.457Z,14.92
2022-10-31T21:36:37.051Z,14.96
2022-10-31T21:39:07.855Z,15.01
2022-10-31T21:41:35.170Z,15.03
2022-10-31T21:44:02.510Z,15.09
2022-10-31T21:46:33.097Z,15.14
2022-10-31T21:49:03.757Z,15.17
2022-10-31T21:51:34.957Z,15.19
2022-10-31T21:54:20.782Z,15.24
2022-10-31T21:56:48.309Z,15.28
2022-10-31T21:59:15.382Z,15.32
2022-10-31T22:01:42.495Z,15.37
2022-10-31T22:04:10.460Z,15.39
2022-10-31T22:06:38.114Z,15.44
2022-10-31T22:09:08.950Z,15.47
2022-10-31T22:11:36.109Z,15.50
2022-10-31T22:14:04.889Z,15.48
2022-10-31T22:16:36.594Z,15.47
2022-10-31T22:19:05.938Z,15.48
2022-10-31T22:21:46.502Z,15.53
2022-10-31T22:24:14.541Z,15.53
2022-10-31T22:26:42.428Z,15.54
2022-10-31T22:29:19.099Z,15.55
2022-10-31T22:31:57.224Z,15.57
2022-10-31T22:34:26.853Z,15.58
2022-10-31T22:36:56.239Z,15.59
2022-10-31T22:39:23.526Z,15.60
2022-10-31T22:41:50.642Z,15.61
2022-10-31T22:44:18.281Z,15.61
2022-10-31T22:46:45.273Z,15.61
2022-10-31T22:49:14.962Z,15.62
2022-10-31T22:51:43.744Z,15.61
2022-10-31T22:54:17.999Z,15.62
2022-10-31T22:56:45.747Z,15.63
2022-10-31T22:59:17.022Z,15.63
2022-10-31T23:01:45.842Z,15.64
2022-10-31T23:04:15.192Z,15.66
2022-10-31T23:06:42.612Z,15.68
2022-10-31T23:09:14.094Z,15.68
2022-10-31T23:11:41.919Z,15.69
2022-10-31T23:14:18.566Z,15.72
2022-10-31T23:16:51.563Z,15.72
2022-10-31T23:19:22.797Z,15.73
2022-10-31T23:21:57.390Z,15.77
2022-10-31T23:24:39.512Z,15.82
2022-10-31T23:27:11.640Z,15.86
2022-10-31T23:30:10.044Z,15.95
2022-10-31T23:32:38.231Z,16.01
2022-10-31T23:35:09.690Z,16.11
2022-10-31T23:37:38.912Z,16.20
2022-10-31T23:40:08.711Z,16.28
2022-10-31T23:42:36.066Z,16.36
2022-10-31T23:45:03.279Z,16.42
2022-10-31T23:47:30.306Z,16.46
2022-10-31T23:49:57.349Z,16.52
2022-10-31T23:52:24.451Z,16.55
2022-10-31T23:54:51.464Z,16.56
2022-10-31T23:57:18.814Z,16.61
2022-10-31T23:59:46.549Z,16.64
